Time;durP1;ratioP1;P1;durP2;ratioP2;P2;SDS_P1;SDS_P2;PMS_P1;PMS_P2;Temp;Humidity;BMP_temperature;BMP_pressure;BME280_temperature;BME280_humidity;BME280_pressure;Samples;Min_cycle;Max_cycle;Signal;HPM_P1;HPM_P2
2023/06/24 00:02:07;;;;;;;0.10;0.10;;;20.10;99.90;;;;;;5073481;28;20064;-77
2023/06/24 00:04:33;;;;;;;0.10;0.10;;;20.00;99.90;;;;;;5073666;28;20032;-78
2023/06/24 00:07:00;;;;;;;1.08;0.57;;;19.50;99.90;;;;;;5073807;28;20021;-78
2023/06/24 00:09:27;;;;;;;0.00;0.00;;;19.20;99.90;;;;;;5073543;28;20025;-78
2023/06/24 00:11:54;;;;;;;0.20;0.20;;;19.30;99.90;;;;;;5073704;28;20066;-78
2023/06/24 00:14:23;;;;;;;0.05;0.05;;;19.30;99.90;;;;;;5073189;28;20016;-78
2023/06/24 00:16:51;;;;;;;0.00;0.00;;;19.40;99.90;;;;;;5073216;28;20036;-77
2023/06/24 00:19:20;;;;;;;0.00;0.00;;;19.50;99.90;;;;;;5073287;28;20113;-78
2023/06/24 00:21:47;;;;;;;0.00;0.00;;;19.80;99.90;;;;;;5073537;28;20522;-78
2023/06/24 00:24:13;;;;;;;0.00;0.00;;;19.80;99.90;;;;;;5073296;28;20021;-78
2023/06/24 00:26:39;;;;;;;0.00;0.00;;;19.80;99.90;;;;;;5072954;28;20024;-78
2023/06/24 00:29:04;;;;;;;0.00;0.00;;;19.80;99.90;;;;;;5073210;28;20107;-78
2023/06/24 00:31:30;;;;;;;0.38;0.38;;;19.70;99.90;;;;;;5073096;28;20020;-78
2023/06/24 00:33:56;;;;;;;0.00;0.00;;;19.60;99.90;;;;;;5073337;28;20036;-78
2023/06/24 00:36:23;;;;;;;0.00;0.00;;;19.70;99.90;;;;;;5071686;28;20078;-77
2023/06/24 00:38:48;;;;;;;0.10;0.10;;;19.60;99.90;;;;;;5071709;28;20025;-78
2023/06/24 00:41:18;;;;;;;0.08;0.08;;;19.50;99.90;;;;;;5072463;28;20468;-78
2023/06/24 00:43:44;;;;;;;0.00;0.00;;;19.40;99.90;;;;;;5072936;28;20059;-77
2023/06/24 00:46:11;;;;;;;0.05;0.05;;;19.30;99.90;;;;;;5071929;28;20020;-78
2023/06/24 00:48:37;;;;;;;0.00;0.00;;;19.30;99.90;;;;;;5071847;28;20048;-78
2023/06/24 00:51:03;;;;;;;0.00;0.00;;;19.30;99.90;;;;;;5071562;28;20500;-78
2023/06/24 00:53:29;;;;;;;0.43;0.43;;;19.20;99.90;;;;;;5071590;28;20123;-78
2023/06/24 00:56:01;;;;;;;0.00;0.00;;;19.00;99.90;;;;;;5072583;28;20044;-78
2023/06/24 00:58:30;;;;;;;0.35;0.35;;;19.00;99.90;;;;;;5071705;28;20065;-78
2023/06/24 01:00:57;;;;;;;0.10;0.10;;;18.90;99.90;;;;;;5072472;28;20021;-78
2023/06/24 01:03:27;;;;;;;0.00;0.00;;;19.00;99.90;;;;;;5072831;28;20025;-77
2023/06/24 01:05:57;;;;;;;0.08;0.08;;;19.10;99.90;;;;;;5072530;28;20100;-78
2023/06/24 01:08:23;;;;;;;0.03;0.03;;;19.20;99.90;;;;;;5072843;28;20029;-78
2023/06/24 01:10:52;;;;;;;2.10;0.85;;;19.10;99.90;;;;;;5072208;28;20397;-78
2023/06/24 01:13:18;;;;;;;0.00;0.00;;;19.10;99.90;;;;;;5071351;28;20028;-77
2023/06/24 01:15:45;;;;;;;0.00;0.00;;;18.90;99.90;;;;;;5072292;28;20415;-77
2023/06/24 01:18:20;;;;;;;0.00;0.00;;;18.80;99.90;;;;;;5072873;28;20047;-77
2023/06/24 01:20:56;;;;;;;0.03;0.03;;;18.80;99.90;;;;;;5072351;28;20016;-77
2023/06/24 01:23:31;;;;;;;0.45;0.45;;;18.80;99.90;;;;;;5070925;28;20028;-77
2023/06/24 01:26:18;;;;;;;0.05;0.05;;;18.50;99.90;;;;;;5071044;28;20039;-77
2023/06/24 01:29:09;;;;;;;0.00;0.00;;;18.60;99.90;;;;;;5074914;28;20025;-77
2023/06/24 01:31:50;;;;;;;0.10;0.10;;;18.60;99.90;;;;;;5076322;28;20078;-77
2023/06/24 01:34:34;;;;;;;0.00;0.00;;;18.70;99.90;;;;;;5076611;28;20032;-77
2023/06/24 01:37:28;;;;;;;0.00;0.00;;;18.70;99.90;;;;;;5051797;28;20033;-78
2023/06/24 01:40:09;;;;;;;0.10;0.10;;;18.70;99.90;;;;;;5076348;28;20032;-77
2023/06/24 01:42:38;;;;;;;0.20;0.20;;;18.70;99.90;;;;;;5076562;28;20072;-77
2023/06/24 01:45:32;;;;;;;0.00;0.00;;;18.60;99.90;;;;;;5074780;28;20040;-77
2023/06/24 01:48:11;;;;;;;0.00;0.00;;;18.70;99.90;;;;;;5069522;28;20370;-77
2023/06/24 01:50:41;;;;;;;0.00;0.00;;;18.80;99.90;;;;;;5075105;28;20016;-77
2023/06/24 01:53:08;;;;;;;0.00;0.00;;;18.60;99.90;;;;;;5075825;28;20484;-76
2023/06/24 01:55:37;;;;;;;0.00;0.00;;;18.40;99.90;;;;;;5075976;28;20465;-77
2023/06/24 01:58:05;;;;;;;0.00;0.00;;;18.40;99.90;;;;;;5076175;28;20036;-77
2023/06/24 02:00:33;;;;;;;0.10;0.10;;;18.30;99.90;;;;;;5074755;28;20027;-77
2023/06/24 02:03:00;;;;;;;0.10;0.10;;;18.40;99.90;;;;;;5075982;28;20036;-77
2023/06/24 02:05:28;;;;;;;0.63;0.63;;;18.50;99.90;;;;;;5076302;28;20028;-77
2023/06/24 02:07:56;;;;;;;0.00;0.00;;;18.30;99.90;;;;;;5075774;28;20023;-77
2023/06/24 02:10:24;;;;;;;0.10;0.10;;;18.20;99.90;;;;;;5074699;28;20044;-77
2023/06/24 02:12:52;;;;;;;0.00;0.00;;;18.20;99.90;;;;;;5074405;28;20036;-77
2023/06/24 02:15:19;;;;;;;0.05;0.05;;;18.30;99.90;;;;;;5074535;28;20495;-77
2023/06/24 02:17:49;;;;;;;0.00;0.00;;;18.40;99.90;;;;;;5074232;28;20123;-77
2023/06/24 02:20:17;;;;;;;0.00;0.00;;;18.40;99.90;;;;;;5075748;28;20028;-77
2023/06/24 02:22:45;;;;;;;0.10;0.10;;;18.30;99.90;;;;;;5075220;28;20496;-77
2023/06/24 02:25:11;;;;;;;0.10;0.10;;;18.20;99.90;;;;;;5075663;28;20050;-77
2023/06/24 02:27:37;;;;;;;0.08;0.08;;;18.20;99.90;;;;;;5073944;28;20029;-77
2023/06/24 02:30:05;;;;;;;0.00;0.00;;;18.10;99.90;;;;;;5075508;28;20115;-77
2023/06/24 02:32:31;;;;;;;0.00;0.00;;;18.20;99.90;;;;;;5074321;28;20073;-77
2023/06/24 02:34:59;;;;;;;0.00;0.00;;;18.30;99.90;;;;;;5074040;28;20377;-77
2023/06/24 02:37:25;;;;;;;0.00;0.00;;;18.30;99.90;;;;;;5075086;28;20044;-77
2023/06/24 02:39:50;;;;;;;0.00;0.00;;;18.20;99.90;;;;;;5074004;28;20025;-77
2023/06/24 02:42:16;;;;;;;0.00;0.00;;;18.20;99.90;;;;;;5070801;28;20052;-77
2023/06/24 02:44:42;;;;;;;0.05;0.05;;;18.20;99.90;;;;;;5071042;28;20108;-77
2023/06/24 02:47:12;;;;;;;0.00;0.00;;;18.30;99.90;;;;;;5073714;28;20044;-77
2023/06/24 02:49:39;;;;;;;0.00;0.00;;;18.40;99.90;;;;;;5073876;28;20542;-77
2023/06/24 02:52:05;;;;;;;0.08;0.08;;;18.30;99.90;;;;;;5074746;28;20059;-77
2023/06/24 02:54:33;;;;;;;0.00;0.00;;;18.10;99.90;;;;;;5073769;28;20030;-77
2023/06/24 02:57:26;;;;;;;0.98;0.95;;;17.80;99.90;;;;;;5058803;28;20052;-77
2023/06/24 03:00:27;;;;;;;;;;;17.30;99.90;;;;;;5064036;28;20408;-77
2023/06/24 03:03:27;;;;;;;0.05;0.05;;;17.20;99.90;;;;;;5050086;28;19916;-77
2023/06/24 03:05:58;;;;;;;0.10;0.10;;;17.10;99.90;;;;;;5073744;28;20443;-76
2023/06/24 03:08:27;;;;;;;0.77;0.77;;;17.30;99.90;;;;;;5073315;28;20028;-77
2023/06/24 03:10:56;;;;;;;0.85;0.55;;;17.50;99.90;;;;;;5074900;28;20036;-77
2023/06/24 03:13:24;;;;;;;0.00;0.00;;;17.60;99.90;;;;;;5073360;28;20035;-76
2023/06/24 03:15:55;;;;;;;0.00;0.00;;;17.80;99.90;;;;;;5073358;28;20105;-76
2023/06/24 03:18:21;;;;;;;0.00;0.00;;;17.70;99.90;;;;;;5072997;28;20028;-77
2023/06/24 03:20:48;;;;;;;0.00;0.00;;;17.70;99.90;;;;;;5068544;28;20035;-77
2023/06/24 03:23:18;;;;;;;0.28;0.28;;;17.70;99.90;;;;;;5077781;28;20476;-76
2023/06/24 03:25:44;;;;;;;0.00;0.00;;;17.70;99.90;;;;;;5073189;28;20044;-77
2023/06/24 03:28:10;;;;;;;0.00;0.00;;;17.70;99.90;;;;;;5073237;28;20363;-77
2023/06/24 03:30:42;;;;;;;0.10;0.10;;;17.80;99.90;;;;;;5072442;28;20029;-76
2023/06/24 03:33:09;;;;;;;0.00;0.00;;;17.70;99.90;;;;;;5072606;28;20086;-77
2023/06/24 03:35:35;;;;;;;0.00;0.00;;;17.60;99.90;;;;;;5055780;28;20509;-77
2023/06/24 03:38:05;;;;;;;0.00;0.00;;;17.60;99.90;;;;;;5072972;28;20216;-79
2023/06/24 03:40:32;;;;;;;0.10;0.10;;;17.60;99.90;;;;;;5072605;28;20020;-77
2023/06/24 03:42:58;;;;;;;0.00;0.00;;;17.70;99.90;;;;;;5072674;28;20040;-78
2023/06/24 03:45:24;;;;;;;0.00;0.00;;;17.80;99.90;;;;;;5072512;28;20024;-78
2023/06/24 03:47:50;;;;;;;0.00;0.00;;;17.80;99.90;;;;;;5072801;28;20107;-78
2023/06/24 03:50:16;;;;;;;1.55;0.90;;;17.80;99.90;;;;;;5071956;28;20515;-78
2023/06/24 03:52:41;;;;;;;0.00;0.00;;;17.70;99.90;;;;;;5073570;28;20598;-79
2023/06/24 03:55:07;;;;;;;0.00;0.00;;;17.60;99.90;;;;;;5072398;28;20101;-78
2023/06/24 03:57:33;;;;;;;0.10;0.10;;;17.50;99.90;;;;;;5072285;28;20492;-78
2023/06/24 03:59:59;;;;;;;0.00;0.00;;;17.50;99.90;;;;;;5072470;28;20447;-78
2023/06/24 04:02:26;;;;;;;0.10;0.10;;;17.50;99.90;;;;;;5072095;28;20079;-78
2023/06/24 04:04:53;;;;;;;0.30;0.30;;;17.40;99.90;;;;;;5073541;28;20025;-78
2023/06/24 04:07:27;;;;;;;0.25;0.25;;;17.50;99.90;;;;;;5072615;28;20559;-78
2023/06/24 04:09:56;;;;;;;0.20;0.20;;;17.30;99.90;;;;;;5072091;28;20033;-78
2023/06/24 04:12:22;;;;;;;0.00;0.00;;;17.30;99.90;;;;;;5071972;28;20381;-78
2023/06/24 04:14:48;;;;;;;0.40;0.40;;;17.40;99.90;;;;;;5071988;28;20064;-78
2023/06/24 04:17:13;;;;;;;0.00;0.00;;;17.30;99.90;;;;;;5071883;28;20075;-77
2023/06/24 04:19:39;;;;;;;0.00;0.00;;;17.50;99.90;;;;;;5071912;28;20029;-77
2023/06/24 04:22:05;;;;;;;0.90;0.90;;;17.40;99.90;;;;;;5073333;28;20036;-78
2023/06/24 04:24:31;;;;;;;0.47;0.47;;;17.30;99.90;;;;;;5072323;28;20104;-77
2023/06/24 04:26:58;;;;;;;0.00;0.00;;;17.10;99.90;;;;;;5072001;28;20021;-77
2023/06/24 04:29:23;;;;;;;0.00;0.00;;;17.20;99.90;;;;;;5072154;28;20025;-77
2023/06/24 04:31:49;;;;;;;1.45;0.75;;;17.20;99.90;;;;;;5072836;28;20048;-78
2023/06/24 04:34:16;;;;;;;0.00;0.00;;;17.30;99.90;;;;;;5071933;28;20070;-79
2023/06/24 04:36:42;;;;;;;0.00;0.00;;;17.60;99.90;;;;;;5071666;28;20484;-78
2023/06/24 04:39:08;;;;;;;2.45;0.50;;;17.60;99.90;;;;;;5071821;28;20036;-78
2023/06/24 04:41:34;;;;;;;0.10;0.10;;;17.40;99.90;;;;;;5071612;28;20067;-79
2023/06/24 04:44:00;;;;;;;0.00;0.00;;;17.40;99.90;;;;;;5072938;28;20063;-78
2023/06/24 04:46:26;;;;;;;0.55;0.55;;;17.50;99.90;;;;;;5072674;28;20025;-78
2023/06/24 04:48:51;;;;;;;1.85;1.75;;;17.70;99.90;;;;;;5072996;28;20056;-78
2023/06/24 04:51:17;;;;;;;1.30;1.10;;;17.60;99.90;;;;;;5072758;28;20093;-77
2023/06/24 04:53:43;;;;;;;0.90;0.82;;;17.60;99.90;;;;;;5071498;28;20086;-77
2023/06/24 04:56:08;;;;;;;0.63;0.63;;;17.30;99.90;;;;;;5072561;28;20051;-78
2023/06/24 04:58:34;;;;;;;4.70;0.98;;;17.20;99.90;;;;;;5072941;28;20025;-77
2023/06/24 05:01:00;;;;;;;3.75;2.08;;;17.40;99.90;;;;;;5072227;28;20028;-78
2023/06/24 05:03:26;;;;;;;0.20;0.20;;;17.30;99.90;;;;;;5071934;28;20024;-78
2023/06/24 05:05:52;;;;;;;1.98;1.42;;;17.30;99.90;;;;;;5072607;28;20021;-78
2023/06/24 05:08:17;;;;;;;0.00;0.00;;;17.10;99.90;;;;;;5072596;28;20029;-78
2023/06/24 05:10:43;;;;;;;0.43;0.43;;;17.20;99.90;;;;;;5072407;28;20031;-77
2023/06/24 05:13:09;;;;;;;1.58;1.10;;;17.10;99.90;;;;;;5072554;28;20036;-78
2023/06/24 05:15:35;;;;;;;1.25;0.65;;;17.40;99.90;;;;;;5063995;28;20067;-77
2023/06/24 05:18:00;;;;;;;2.58;2.08;;;17.50;99.90;;;;;;5072582;28;20032;-77
2023/06/24 05:20:26;;;;;;;2.53;1.85;;;17.40;99.90;;;;;;5071379;28;20086;-76
2023/06/24 05:22:52;;;;;;;2.45;0.98;;;17.40;99.90;;;;;;5052408;28;20064;-76
2023/06/24 05:25:18;;;;;;;5.50;1.63;;;17.60;99.90;;;;;;5044299;28;20020;-76
2023/06/24 05:27:47;;;;;;;5.95;2.78;;;17.60;99.90;;;;;;5051767;28;20079;-77
2023/06/24 05:30:14;;;;;;;0.00;0.00;;;17.80;99.90;;;;;;5050697;28;20021;-76
2023/06/24 05:32:40;;;;;;;1.67;1.58;;;17.80;99.90;;;;;;5051620;28;20081;-77
2023/06/24 05:35:06;;;;;;;1.08;0.55;;;17.80;99.90;;;;;;5051495;28;20075;-76
2023/06/24 05:37:32;;;;;;;0.10;0.10;;;17.90;99.90;;;;;;5051358;28;20495;-75
2023/06/24 05:40:01;;;;;;;2.88;1.88;;;18.10;99.90;;;;;;5051731;28;20028;-76
2023/06/24 05:42:27;;;;;;;0.70;0.63;;;18.00;99.90;;;;;;5048609;28;20033;-76
2023/06/24 05:44:53;;;;;;;2.65;2.45;;;18.00;99.90;;;;;;5049874;28;20132;-76
2023/06/24 05:47:20;;;;;;;3.20;0.50;;;18.10;99.90;;;;;;5050784;28;20163;-76
2023/06/24 05:49:46;;;;;;;0.80;0.80;;;18.40;99.90;;;;;;5051478;28;20483;-76
2023/06/24 05:52:12;;;;;;;0.25;0.25;;;18.40;99.90;;;;;;5052054;28;20028;-76
2023/06/24 05:54:37;;;;;;;0.68;0.57;;;18.40;99.90;;;;;;5060868;28;20461;-75
2023/06/24 05:57:07;;;;;;;5.72;1.40;;;18.30;99.90;;;;;;5063288;28;20047;-77
2023/06/24 05:59:33;;;;;;;2.42;2.22;;;18.30;99.90;;;;;;5057627;28;20086;-76
2023/06/24 06:02:01;;;;;;;0.25;0.22;;;18.30;99.90;;;;;;5055553;28;20025;-75
2023/06/24 06:04:27;;;;;;;2.58;1.65;;;18.20;99.90;;;;;;5051294;28;20043;-76
2023/06/24 06:06:53;;;;;;;0.68;0.68;;;18.10;99.90;;;;;;5050359;28;20028;-75
2023/06/24 06:09:20;;;;;;;3.15;0.73;;;18.30;99.90;;;;;;5050876;28;20492;-76
2023/06/24 06:11:46;;;;;;;1.42;0.60;;;18.70;99.90;;;;;;5050267;28;20404;-76
2023/06/24 06:14:12;;;;;;;9.63;2.55;;;18.60;99.90;;;;;;5051721;28;20027;-76
2023/06/24 06:16:38;;;;;;;0.10;0.10;;;18.60;99.90;;;;;;5054703;28;20119;-76
2023/06/24 06:19:03;;;;;;;3.20;0.85;;;18.60;99.90;;;;;;5036759;28;20024;-76
2023/06/24 06:21:29;;;;;;;0.85;0.85;;;18.60;99.90;;;;;;5054212;28;20119;-77
2023/06/24 06:23:55;;;;;;;0.90;0.75;;;18.70;99.90;;;;;;5041662;28;20025;-76
2023/06/24 06:26:21;;;;;;;0.82;0.75;;;19.00;99.90;;;;;;5054635;28;20021;-76
2023/06/24 06:28:47;;;;;;;0.38;0.38;;;18.90;99.90;;;;;;5068204;28;20523;-76
2023/06/24 06:31:14;;;;;;;2.00;1.50;;;19.30;99.90;;;;;;5054492;28;20060;-77
2023/06/24 06:33:40;;;;;;;0.30;0.30;;;19.30;99.90;;;;;;5054179;28;20025;-76
2023/06/24 06:36:05;;;;;;;3.10;1.50;;;19.30;99.90;;;;;;5054260;28;20041;-77
2023/06/24 06:38:33;;;;;;;6.78;3.67;;;19.50;99.90;;;;;;5054604;28;20013;-76
2023/06/24 06:40:59;;;;;;;1.27;0.65;;;19.50;99.90;;;;;;5054394;28;20041;-77
2023/06/24 06:43:25;;;;;;;2.13;1.33;;;19.60;99.90;;;;;;5053946;28;20436;-76
2023/06/24 06:45:51;;;;;;;1.27;1.17;;;19.50;99.90;;;;;;5054160;28;20074;-75
2023/06/24 06:48:17;;;;;;;5.45;1.92;;;19.40;99.90;;;;;;5052729;28;20029;-75
2023/06/24 06:50:42;;;;;;;1.00;0.75;;;19.10;99.90;;;;;;5054581;28;20025;-75
2023/06/24 06:53:08;;;;;;;4.25;0.85;;;19.20;99.90;;;;;;5060434;28;20035;-76
2023/06/24 06:55:36;;;;;;;1.08;0.65;;;19.30;99.90;;;;;;5061532;28;20013;-77
2023/06/24 06:58:01;;;;;;;3.72;2.75;;;19.80;99.90;;;;;;5067857;28;20110;-76
2023/06/24 07:00:27;;;;;;;5.20;1.40;;;19.70;99.90;;;;;;5072248;28;20056;-76
2023/06/24 07:02:53;;;;;;;4.78;2.38;;;19.80;99.90;;;;;;5060096;28;20032;-76
2023/06/24 07:05:19;;;;;;;0.93;0.77;;;20.40;99.90;;;;;;5059848;28;20033;-77
2023/06/24 07:07:45;;;;;;;0.00;0.00;;;20.70;99.90;;;;;;5062657;28;20091;-76
2023/06/24 07:10:11;;;;;;;1.58;1.23;;;20.70;99.90;;;;;;5070346;28;20036;-77
2023/06/24 07:12:37;;;;;;;1.38;0.68;;;20.90;99.90;;;;;;5073058;28;20048;-76
2023/06/24 07:15:03;;;;;;;2.28;1.80;;;20.60;99.90;;;;;;5058692;28;20032;-75
2023/06/24 07:17:28;;;;;;;0.68;0.68;;;20.10;99.90;;;;;;5053532;28;20037;-76
2023/06/24 07:19:54;;;;;;;1.67;1.55;;;20.20;99.90;;;;;;5053268;28;20075;-76
2023/06/24 07:22:20;;;;;;;1.15;1.13;;;20.40;99.90;;;;;;5053378;28;20382;-75
2023/06/24 07:24:45;;;;;;;4.60;2.72;;;20.60;99.90;;;;;;5053460;28;20049;-76
2023/06/24 07:27:11;;;;;;;1.08;1.08;;;20.20;99.90;;;;;;5052021;28;20031;-76
2023/06/24 07:29:37;;;;;;;0.95;0.82;;;20.20;99.90;;;;;;5053204;28;20090;-76
2023/06/24 07:32:03;;;;;;;1.55;0.90;;;20.50;99.90;;;;;;5051967;28;20044;-76
2023/06/24 07:34:30;;;;;;;0.03;0.03;;;20.80;99.90;;;;;;5053260;28;20086;-76
2023/06/24 07:36:57;;;;;;;0.15;0.15;;;21.20;99.90;;;;;;5053377;28;20091;-76
2023/06/24 07:39:22;;;;;;;0.70;0.70;;;21.50;99.90;;;;;;5052645;28;20036;-76
2023/06/24 07:41:48;;;;;;;0.57;0.57;;;21.50;99.90;;;;;;5052875;28;20028;-76
2023/06/24 07:44:14;;;;;;;4.10;1.65;;;21.40;99.90;;;;;;5053130;28;20063;-77
2023/06/24 07:46:40;;;;;;;4.60;1.40;;;21.20;99.90;;;;;;5053149;28;20388;-76
2023/06/24 07:49:05;;;;;;;9.50;4.45;;;21.30;99.90;;;;;;5051110;28;20025;-76
2023/06/24 07:51:31;;;;;;;4.18;2.35;;;21.10;99.90;;;;;;5055455;28;20017;-75
2023/06/24 07:53:57;;;;;;;3.63;2.17;;;21.10;99.90;;;;;;5054681;28;20394;-73
2023/06/24 07:56:22;;;;;;;0.20;0.20;;;20.90;99.90;;;;;;5064215;28;20074;-76
2023/06/24 07:58:48;;;;;;;0.88;0.50;;;21.00;99.90;;;;;;5068715;28;20118;-77
2023/06/24 08:01:14;;;;;;;0.50;0.50;;;21.10;99.90;;;;;;5068010;28;20083;-77
2023/06/24 08:03:40;;;;;;;0.17;0.17;;;21.40;99.90;;;;;;5055631;28;20017;-77
2023/06/24 08:06:05;;;;;;;2.40;2.30;;;21.80;99.90;;;;;;5059393;28;20025;-77
2023/06/24 08:08:31;;;;;;;0.10;0.10;;;22.00;99.90;;;;;;5066813;28;20016;-77
2023/06/24 08:10:57;;;;;;;1.85;1.70;;;22.10;99.90;;;;;;5066920;28;20032;-78
2023/06/24 08:13:22;;;;;;;0.00;0.00;;;22.30;99.90;;;;;;5066761;28;20489;-77
2023/06/24 08:15:48;;;;;;;5.05;1.50;;;22.20;99.90;;;;;;5056220;28;20024;-77
2023/06/24 08:18:14;;;;;;;1.65;1.30;;;22.20;99.90;;;;;;5061698;28;20036;-77
2023/06/24 08:20:40;;;;;;;1.60;1.13;;;22.40;99.90;;;;;;5067325;28;20012;-77
2023/06/24 08:23:05;;;;;;;0.32;0.32;;;22.20;99.90;;;;;;5056821;28;20068;-77
2023/06/24 08:25:31;;;;;;;0.45;0.45;;;22.10;99.90;;;;;;5066498;28;20445;-77
2023/06/24 08:27:57;;;;;;;0.20;0.10;;;22.20;99.90;;;;;;5056879;28;20108;-77
2023/06/24 08:30:23;;;;;;;1.42;1.33;;;22.20;99.90;;;;;;5064258;28;20366;-77
2023/06/24 08:32:49;;;;;;;0.93;0.93;;;22.40;99.90;;;;;;5068106;28;20051;-77
2023/06/24 08:35:14;;;;;;;1.33;0.98;;;22.10;99.90;;;;;;5067398;28;20085;-77
2023/06/24 08:37:40;;;;;;;0.10;0.10;;;22.00;99.90;;;;;;5055193;28;20430;-78
2023/06/24 08:40:06;;;;;;;0.10;0.10;;;22.40;99.90;;;;;;5058220;28;20037;-77
2023/06/24 08:42:33;;;;;;;1.45;1.23;;;22.60;99.90;;;;;;5066130;28;20024;-77
2023/06/24 08:44:58;;;;;;;4.57;2.88;;;22.60;99.90;;;;;;5068354;28;20385;-77
2023/06/24 08:47:27;;;;;;;1.70;0.22;;;22.70;99.90;;;;;;5067109;28;20025;-77
2023/06/24 08:50:01;;;;;;;0.45;0.40;;;23.10;99.90;;;;;;5055761;28;20025;-77
2023/06/24 08:52:31;;;;;;;2.60;1.20;;;23.10;99.90;;;;;;5058501;28;20017;-77
2023/06/24 08:54:59;;;;;;;1.27;0.95;;;23.30;99.90;;;;;;5061099;28;20019;-77
2023/06/24 08:57:26;;;;;;;1.38;1.27;;;23.10;99.90;;;;;;5061393;28;20041;-77
2023/06/24 08:59:53;;;;;;;1.52;1.05;;;23.20;99.90;;;;;;5069761;28;20028;-77
2023/06/24 09:02:19;;;;;;;0.80;0.73;;;23.30;99.90;;;;;;5060465;28;20453;-77
2023/06/24 09:04:45;;;;;;;0.47;0.47;;;23.50;99.90;;;;;;5059083;28;20075;-78
2023/06/24 09:07:11;;;;;;;0.20;0.20;;;23.20;99.90;;;;;;5060287;28;20070;-77
2023/06/24 09:09:44;;;;;;;0.00;0.00;;;23.30;99.90;;;;;;5053703;28;20036;-78
2023/06/24 09:12:13;;;;;;;1.42;1.17;;;23.90;99.90;;;;;;5070860;28;20040;-79
2023/06/24 09:14:40;;;;;;;2.08;0.93;;;24.20;99.90;;;;;;5058929;28;20037;-77
2023/06/24 09:17:06;;;;;;;1.00;0.95;;;23.90;99.90;;;;;;5059536;28;20036;-78
2023/06/24 09:19:36;;;;;;;0.20;0.20;;;23.50;99.90;;;;;;5060649;28;20062;-77
2023/06/24 09:22:03;;;;;;;0.00;0.00;;;23.70;99.90;;;;;;5042577;28;20044;-78
2023/06/24 09:24:37;;;;;;;0.70;0.30;;;23.90;99.90;;;;;;5064342;28;20028;-78
2023/06/24 09:27:03;;;;;;;0.30;0.15;;;24.40;99.90;;;;;;5058434;28;20039;-78
2023/06/24 09:29:34;;;;;;;0.88;0.75;;;24.40;99.90;;;;;;5059086;28;20028;-77
2023/06/24 09:32:04;;;;;;;0.00;0.00;;;24.20;99.90;;;;;;5065484;28;20040;-77
2023/06/24 09:34:30;;;;;;;0.28;0.28;;;24.60;99.90;;;;;;5069538;28;20033;-77
2023/06/24 09:36:58;;;;;;;0.77;0.77;;;24.40;99.90;;;;;;5056051;28;20132;-77
2023/06/24 09:39:30;;;;;;;0.20;0.20;;;24.40;99.90;;;;;;5056674;28;20020;-78
2023/06/24 09:41:57;;;;;;;0.20;0.15;;;24.30;99.50;;;;;;5061142;28;20486;-78
2023/06/24 09:44:24;;;;;;;0.10;0.10;;;24.60;99.10;;;;;;5066832;28;20025;-78
2023/06/24 09:46:50;;;;;;;0.00;0.00;;;24.60;98.60;;;;;;5070191;28;20060;-77
2023/06/24 09:49:16;;;;;;;0.20;0.20;;;24.80;98.80;;;;;;5057065;28;20044;-78
2023/06/24 09:51:46;;;;;;;0.05;0.05;;;25.20;98.70;;;;;;5060550;28;20056;-78
2023/06/24 09:54:13;;;;;;;0.75;0.75;;;25.20;97.50;;;;;;5061275;28;20098;-78
2023/06/24 09:56:45;;;;;;;0.00;0.00;;;25.60;97.00;;;;;;5068332;28;20027;-79
2023/06/24 09:59:13;;;;;;;0.15;0.15;;;25.70;96.70;;;;;;5067566;28;20035;-78
2023/06/24 10:01:41;;;;;;;1.00;0.65;;;25.60;95.60;;;;;;5069017;28;20036;-79
2023/06/24 10:04:07;;;;;;;0.25;0.25;;;25.70;95.10;;;;;;5058324;28;20036;-79
2023/06/24 10:06:34;;;;;;;0.00;0.00;;;25.40;96.30;;;;;;5065093;28;20028;-78
2023/06/24 10:09:01;;;;;;;0.15;0.15;;;25.20;96.20;;;;;;5068095;28;20032;-79
2023/06/24 10:11:27;;;;;;;0.00;0.00;;;25.70;95.30;;;;;;5071374;28;20020;-78
2023/06/24 10:13:53;;;;;;;1.00;0.90;;;25.80;95.40;;;;;;5050299;28;20486;-78
2023/06/24 10:16:19;;;;;;;0.40;0.40;;;25.80;96.50;;;;;;5055095;28;20025;-78
2023/06/24 10:18:45;;;;;;;0.00;0.00;;;25.50;95.40;;;;;;5066953;28;20032;-78
2023/06/24 10:21:12;;;;;;;0.90;0.90;;;25.80;95.10;;;;;;5067056;28;20028;-78
2023/06/24 10:23:50;;;;;;;0.00;0.00;;;26.00;94.90;;;;;;5062384;28;20036;-79
2023/06/24 10:26:28;;;;;;;0.50;0.25;;;26.40;94.60;;;;;;5063724;28;20021;-78
2023/06/24 10:29:06;;;;;;;0.00;0.00;;;26.40;93.60;;;;;;5057991;28;20021;-78
2023/06/24 10:31:40;;;;;;;0.30;0.20;;;26.30;93.50;;;;;;5073898;28;20032;-77
2023/06/24 10:34:24;;;;;;;3.28;1.33;;;26.40;92.30;;;;;;5075084;28;20504;-77
2023/06/24 10:36:58;;;;;;;0.08;0.08;;;25.70;91.80;;;;;;5075118;28;20056;-78
2023/06/24 10:39:41;;;;;;;0.20;0.20;;;25.70;92.20;;;;;;5075225;28;20032;-77
2023/06/24 10:42:25;;;;;;;0.10;0.10;;;26.20;92.30;;;;;;5075139;28;20071;-78
2023/06/24 10:44:53;;;;;;;4.90;0.50;;;26.40;93.00;;;;;;5075112;28;20025;-75
2023/06/24 10:47:19;;;;;;;0.57;0.50;;;26.30;93.00;;;;;;5075075;28;20025;-74
2023/06/24 10:49:48;;;;;;;0.55;0.50;;;26.30;93.20;;;;;;5073713;28;20120;-74
2023/06/24 10:52:14;;;;;;;0.60;0.60;;;26.40;94.20;;;;;;5074729;28;20029;-73
2023/06/24 10:54:40;;;;;;;2.00;1.25;;;26.10;93.50;;;;;;5074750;28;20079;-73
2023/06/24 10:57:07;;;;;;;0.45;0.45;;;26.50;92.40;;;;;;5074736;28;20047;-73
2023/06/24 10:59:40;;;;;;;0.20;0.20;;;26.70;93.30;;;;;;5074773;28;20073;-74
2023/06/24 11:02:09;;;;;;;0.90;0.50;;;26.90;92.60;;;;;;5073927;28;20523;-73
2023/06/24 11:04:45;;;;;;;1.10;0.68;;;26.70;92.70;;;;;;5074370;28;20027;-74
2023/06/24 11:07:11;;;;;;;0.10;0.10;;;26.90;92.90;;;;;;5074943;28;20040;-73
2023/06/24 11:09:38;;;;;;;0.10;0.10;;;27.10;92.20;;;;;;5073337;28;20021;-73
2023/06/24 11:12:04;;;;;;;0.10;0.10;;;27.60;91.70;;;;;;5074671;28;20504;-73
2023/06/24 11:14:32;;;;;;;1.02;0.60;;;28.20;91.60;;;;;;5074463;28;20358;-74
2023/06/24 11:17:01;;;;;;;0.30;0.30;;;27.50;90.20;;;;;;5073362;28;20123;-73
2023/06/24 11:19:29;;;;;;;0.43;0.40;;;27.40;90.90;;;;;;5074306;28;20052;-73
2023/06/24 11:21:56;;;;;;;0.03;0.03;;;27.70;91.20;;;;;;5074331;28;20033;-73
2023/06/24 11:24:22;;;;;;;0.52;0.52;;;27.50;91.00;;;;;;5074357;28;20075;-73
2023/06/24 11:26:48;;;;;;;0.00;0.00;;;27.60;90.10;;;;;;5072932;28;20036;-73
2023/06/24 11:29:14;;;;;;;0.43;0.30;;;28.00;90.20;;;;;;5073163;28;20037;-76
2023/06/24 11:31:39;;;;;;;0.52;0.43;;;28.20;89.70;;;;;;5073012;28;20041;-74
2023/06/24 11:34:05;;;;;;;0.40;0.40;;;28.10;87.50;;;;;;5073942;28;20032;-73
2023/06/24 11:36:31;;;;;;;0.70;0.70;;;28.00;88.10;;;;;;5074275;28;20074;-75
2023/06/24 11:38:57;;;;;;;0.10;0.10;;;28.20;88.00;;;;;;5073968;28;20055;-74
2023/06/24 11:41:25;;;;;;;0.00;0.00;;;28.40;88.20;;;;;;5074047;28;20032;-73
2023/06/24 11:43:51;;;;;;;0.00;0.00;;;28.60;87.70;;;;;;5073495;28;20094;-73
2023/06/24 11:46:26;;;;;;;0.28;0.20;;;28.90;86.70;;;;;;5073999;28;20028;-72
2023/06/24 11:48:52;;;;;;;0.00;0.00;;;28.70;88.90;;;;;;5073925;28;20035;-72
2023/06/24 11:51:18;;;;;;;0.17;0.17;;;28.10;90.10;;;;;;5073475;28;20082;-74
2023/06/24 11:53:45;;;;;;;0.95;0.45;;;28.00;90.60;;;;;;5072914;28;20119;-73
2023/06/24 11:56:11;;;;;;;0.20;0.20;;;28.30;90.40;;;;;;5073724;28;20052;-74
2023/06/24 11:58:37;;;;;;;0.08;0.08;;;28.60;90.20;;;;;;5073999;28;20036;-75
2023/06/24 12:01:03;;;;;;;2.20;0.82;;;28.70;87.40;;;;;;5072936;28;20120;-73
2023/06/24 12:03:32;;;;;;;1.05;0.85;;;28.60;85.30;;;;;;5073625;28;20033;-73
2023/06/24 12:05:58;;;;;;;0.52;0.50;;;28.10;88.90;;;;;;5073501;28;20033;-73
2023/06/24 12:08:23;;;;;;;0.10;0.10;;;28.40;89.80;;;;;;5044564;28;20035;-74
2023/06/24 12:10:49;;;;;;;0.57;0.55;;;28.90;90.00;;;;;;5070132;28;21132;-74
2023/06/24 12:13:15;;;;;;;1.25;0.57;;;29.00;88.50;;;;;;5073073;28;20397;-75
2023/06/24 12:15:42;;;;;;;0.28;0.28;;;28.70;89.70;;;;;;5071948;28;20028;-73
2023/06/24 12:18:08;;;;;;;1.02;0.73;;;28.90;87.80;;;;;;5073263;28;20036;-74
2023/06/24 12:20:36;;;;;;;0.10;0.10;;;29.30;86.30;;;;;;5071841;28;20370;-73
2023/06/24 12:23:03;;;;;;;0.00;0.00;;;29.40;87.30;;;;;;5073318;28;20078;-74
2023/06/24 12:25:29;;;;;;;0.05;0.05;;;29.70;87.10;;;;;;5073339;28;20500;-73
2023/06/24 12:27:55;;;;;;;2.22;1.10;;;29.80;87.10;;;;;;5054196;28;20188;-75
2023/06/24 12:30:21;;;;;;;0.73;0.70;;;29.50;84.30;;;;;;5070570;28;20101;-73
2023/06/24 12:32:50;;;;;;;0.00;0.00;;;28.80;83.80;;;;;;5073314;28;20037;-74
2023/06/24 12:35:16;;;;;;;1.15;1.15;;;28.70;85.00;;;;;;5072825;28;20021;-73
2023/06/24 12:37:42;;;;;;;0.00;0.00;;;28.90;83.50;;;;;;5073592;28;20124;-74
2023/06/24 12:40:08;;;;;;;0.63;0.63;;;29.90;84.30;;;;;;5068679;28;20020;-73
2023/06/24 12:42:33;;;;;;;0.75;0.47;;;30.50;82.30;;;;;;5045300;28;20368;-72
2023/06/24 12:45:00;;;;;;;3.30;1.63;;;29.60;84.20;;;;;;5066363;28;20040;-74
2023/06/24 12:47:26;;;;;;;0.10;0.10;;;29.30;84.00;;;;;;5073841;28;20557;-74
2023/06/24 12:49:52;;;;;;;1.75;1.30;;;29.10;82.40;;;;;;5073615;28;20029;-73
2023/06/24 12:52:18;;;;;;;0.10;0.10;;;29.10;82.50;;;;;;5072777;28;20021;-72